createdAt,value
2018-02-05T00:00:16.119Z,4.00
2018-02-05T00:01:16.089Z,4.00
2018-02-05T00:02:16.065Z,4.00
2018-02-05T00:03:16.034Z,4.00
2018-02-05T00:04:16.015Z,4.00
2018-02-05T00:05:15.996Z,4.00
2018-02-05T00:06:15.967Z,4.00
2018-02-05T00:07:15.937Z,4.00
2018-02-05T00:08:15.913Z,4.00
2018-02-05T00:09:15.906Z,4.00
2018-02-05T00:10:15.865Z,4.00
2018-02-05T00:11:15.838Z,4.00
2018-02-05T00:12:15.834Z,4.00
2018-02-05T00:13:15.788Z,4.00
2018-02-05T00:14:15.774Z,4.00
2018-02-05T00:15:15.737Z,4.00
2018-02-05T00:16:15.716Z,4.00
2018-02-05T00:17:15.689Z,4.00
2018-02-05T00:18:15.662Z,4.00
2018-02-05T00:19:15.638Z,4.00
2018-02-05T00:20:15.624Z,4.00
2018-02-05T00:21:15.590Z,4.00
2018-02-05T00:22:15.564Z,4.00
2018-02-05T00:23:15.560Z,4.00
2018-02-05T00:24:15.518Z,4.00
2018-02-05T00:25:15.492Z,4.00
2018-02-05T00:26:15.464Z,4.00
2018-02-05T00:27:15.442Z,4.00
2018-02-05T00:28:15.420Z,4.00
2018-02-05T00:29:15.391Z,4.00
2018-02-05T00:30:15.369Z,4.00
2018-02-05T00:31:15.340Z,4.00
2018-02-05T00:32:15.322Z,4.00
2018-02-05T00:33:15.293Z,4.00
2018-02-05T00:34:15.270Z,4.00
2018-02-05T00:35:15.294Z,4.00
2018-02-05T00:36:15.223Z,4.00
2018-02-05T00:37:15.189Z,4.00
2018-02-05T00:38:15.170Z,4.00
2018-02-05T00:39:15.139Z,4.00
2018-02-05T00:40:15.171Z,4.00
2018-02-05T00:41:15.090Z,4.00
2018-02-05T00:42:15.064Z,4.00
2018-02-05T00:43:15.044Z,4.00
2018-02-05T00:44:15.018Z,4.00
2018-02-05T00:45:15.017Z,4.00
2018-02-05T00:46:14.963Z,4.00
2018-02-05T00:47:14.944Z,4.00
2018-02-05T00:48:14.919Z,4.00
2018-02-05T00:49:14.890Z,4.00
2018-02-05T00:50:14.868Z,4.00
2018-02-05T00:51:14.841Z,4.00
2018-02-05T00:52:14.817Z,4.00
2018-02-05T00:53:14.791Z,4.00
2018-02-05T00:54:14.767Z,4.00
2018-02-05T00:55:14.782Z,4.00
2018-02-05T00:56:14.721Z,4.00
2018-02-05T00:57:14.866Z,4.00
2018-02-05T00:58:14.669Z,4.00
2018-02-05T00:59:14.642Z,4.00
2018-02-05T01:00:14.730Z,4.00
2018-02-05T01:01:14.591Z,4.00
2018-02-05T01:02:14.577Z,4.00
2018-02-05T01:03:14.597Z,4.00
2018-02-05T01:04:14.517Z,4.00
2018-02-05T01:05:14.492Z,4.00
2018-02-05T01:06:14.481Z,4.00
2018-02-05T01:07:14.442Z,4.00
2018-02-05T01:08:14.417Z,4.00
2018-02-05T01:09:14.413Z,4.00
2018-02-05T01:10:14.365Z,4.00
2018-02-05T01:11:14.340Z,4.00
2018-02-05T01:12:14.316Z,4.00
2018-02-05T01:13:14.297Z,4.00
2018-02-05T01:14:14.268Z,4.00
2018-02-05T01:15:14.239Z,4.00
2018-02-05T01:16:14.216Z,4.00
2018-02-05T01:17:14.192Z,4.00
2018-02-05T01:18:14.164Z,4.00
2018-02-05T01:19:14.147Z,4.00
2018-02-05T01:20:14.112Z,4.00
2018-02-05T01:21:14.090Z,4.00
2018-02-05T01:22:14.063Z,4.00
2018-02-05T01:23:14.039Z,4.00
2018-02-05T01:24:14.018Z,4.00
2018-02-05T01:25:13.989Z,4.00
2018-02-05T01:26:13.966Z,4.00
2018-02-05T01:27:13.943Z,4.00
2018-02-05T01:28:13.915Z,4.00
2018-02-05T01:29:13.886Z,4.00
2018-02-05T01:30:13.891Z,4.00
2018-02-05T01:31:13.840Z,4.00
2018-02-05T01:32:13.808Z,4.00
2018-02-05T01:33:13.849Z,4.00
2018-02-05T01:34:13.758Z,4.00
2018-02-05T01:35:13.749Z,4.00
2018-02-05T01:36:13.747Z,4.00
2018-02-05T01:37:13.689Z,4.00
2018-02-05T01:38:13.672Z,4.00
2018-02-05T01:39:13.634Z,4.00
2018-02-05T01:40:13.604Z,4.00
2018-02-05T01:41:13.589Z,4.00
2018-02-05T01:42:13.555Z,4.00
2018-02-05T01:43:13.535Z,4.00
2018-02-05T01:44:13.509Z,4.00
2018-02-05T01:45:13.481Z,4.00
2018-02-05T01:46:13.455Z,4.00
2018-02-05T01:47:13.433Z,4.00
2018-02-05T01:48:13.402Z,4.00
2018-02-05T01:49:13.680Z,4.00
2018-02-05T01:50:13.356Z,4.00
2018-02-05T01:51:13.325Z,4.00
2018-02-05T01:52:13.300Z,4.00
2018-02-05T01:53:13.274Z,4.00
2018-02-05T01:54:13.250Z,4.00
2018-02-05T01:55:13.240Z,4.00
2018-02-05T01:56:13.200Z,4.00
2018-02-05T01:57:13.175Z,4.00
2018-02-05T01:58:13.220Z,4.00
2018-02-05T01:59:13.122Z,4.00
2018-02-05T02:00:13.100Z,4.00
2018-02-05T02:01:13.129Z,4.00
2018-02-05T02:02:13.049Z,4.00
2018-02-05T02:03:13.021Z,4.00
2018-02-05T02:04:12.999Z,4.00
2018-02-05T02:05:12.972Z,4.00
2018-02-05T02:06:12.947Z,4.00
2018-02-05T02:07:12.919Z,4.00
2018-02-05T02:08:12.897Z,4.00
2018-02-05T02:09:12.868Z,4.00
2018-02-05T02:10:12.847Z,4.00
2018-02-05T02:11:12.817Z,4.00
2018-02-05T02:12:12.797Z,4.00
2018-02-05T02:13:12.766Z,4.00
2018-02-05T02:14:12.743Z,4.00
2018-02-05T02:15:12.717Z,4.00
2018-02-05T02:16:12.696Z,4.00
2018-02-05T02:17:12.667Z,4.00
2018-02-05T02:18:12.641Z,4.00
2018-02-05T02:19:12.626Z,4.00
2018-02-05T02:20:12.591Z,4.00
2018-02-05T02:21:12.591Z,4.00
2018-02-05T02:22:12.539Z,4.00
2018-02-05T02:23:12.516Z,4.00
2018-02-05T02:24:12.501Z,4.00
2018-02-05T02:25:12.474Z,4.00
2018-02-05T02:26:12.439Z,4.00
2018-02-05T02:27:12.432Z,4.00
2018-02-05T02:28:12.389Z,4.00
2018-02-05T02:29:12.367Z,4.00
2018-02-05T02:30:12.393Z,4.00
2018-02-05T02:31:12.314Z,4.00
2018-02-05T02:32:12.287Z,4.00
2018-02-05T02:33:12.265Z,4.00
2018-02-05T02:34:12.242Z,4.00
2018-02-05T02:35:12.277Z,4.00
2018-02-05T02:36:12.187Z,4.00
2018-02-05T02:37:12.165Z,4.00
2018-02-05T02:38:12.143Z,4.00
2018-02-05T02:39:12.108Z,4.00
2018-02-05T02:40:12.084Z,4.00
2018-02-05T02:41:12.063Z,4.00
2018-02-05T02:42:12.034Z,4.00
2018-02-05T02:43:12.007Z,4.00
2018-02-05T02:44:11.983Z,4.00
2018-02-05T02:45:11.958Z,4.00
2018-02-05T02:46:11.933Z,4.00
2018-02-05T02:47:11.910Z,4.00
2018-02-05T02:48:11.882Z,4.00
2018-02-05T02:49:11.855Z,4.00
2018-02-05T02:50:11.828Z,4.00
2018-02-05T02:51:11.803Z,4.00
2018-02-05T02:52:11.775Z,4.00
2018-02-05T02:53:11.752Z,4.00
2018-02-05T02:54:11.725Z,4.00
2018-02-05T02:55:11.696Z,4.00
2018-02-05T02:56:11.674Z,4.00
2018-02-05T02:57:11.734Z,4.00
2018-02-05T02:58:11.621Z,4.00
2018-02-05T02:59:11.598Z,4.00
2018-02-05T03:00:11.571Z,4.00
2018-02-05T03:01:11.546Z,4.00
2018-02-05T03:02:11.520Z,4.00
2018-02-05T03:03:11.494Z,4.00
2018-02-05T03:04:11.470Z,4.00
2018-02-05T03:05:11.442Z,4.00
2018-02-05T03:06:11.416Z,4.00
2018-02-05T03:07:11.392Z,4.00
2018-02-05T03:08:11.365Z,4.00
2018-02-05T03:09:11.339Z,4.00
2018-02-05T03:10:11.312Z,4.00
2018-02-05T03:11:11.286Z,4.00
2018-02-05T03:12:11.287Z,4.00
2018-02-05T03:13:11.234Z,4.00
2018-02-05T03:14:11.209Z,4.00
2018-02-05T03:15:11.184Z,4.00
2018-02-05T03:16:11.159Z,4.00
2018-02-05T03:17:11.133Z,4.00
2018-02-05T03:18:11.105Z,4.00
2018-02-05T03:19:11.084Z,4.00
2018-02-05T03:20:11.054Z,4.00
2018-02-05T03:21:11.030Z,4.00
2018-02-05T03:22:11.103Z,4.00
2018-02-05T03:23:10.987Z,4.00
2018-02-05T03:24:10.951Z,4.00
2018-02-05T03:25:10.928Z,4.00
2018-02-05T03:26:10.897Z,4.00
2018-02-05T03:27:10.872Z,4.00
2018-02-05T03:28:10.847Z,4.00
2018-02-05T03:29:10.820Z,4.00
2018-02-05T03:30:10.797Z,4.00
2018-02-05T03:31:10.768Z,4.00
2018-02-05T03:32:10.741Z,4.00
2018-02-05T03:33:10.759Z,4.00
2018-02-05T03:34:10.688Z,4.00
2018-02-05T03:35:10.666Z,4.00
2018-02-05T03:36:10.640Z,4.00
2018-02-05T03:37:10.621Z,4.00
2018-02-05T03:38:10.586Z,4.00
2018-02-05T03:39:10.560Z,4.00
2018-02-05T03:40:10.546Z,4.00
2018-02-05T03:41:10.508Z,4.00
2018-02-05T03:42:10.484Z,4.00
2018-02-05T03:43:10.455Z,4.00
2018-02-05T03:44:10.430Z,4.00
2018-02-05T03:45:10.405Z,4.00
2018-02-05T03:46:10.385Z,4.00
2018-02-05T03:47:10.355Z,4.00
2018-02-05T03:48:10.324Z,4.00
2018-02-05T03:49:10.337Z,4.00
2018-02-05T03:50:10.274Z,4.00
2018-02-05T03:51:10.248Z,4.00
2018-02-05T03:52:10.278Z,4.00
2018-02-05T03:53:10.197Z,4.00
2018-02-05T03:54:10.174Z,4.00
2018-02-05T03:55:10.145Z,4.00
2018-02-05T03:56:10.119Z,4.00
2018-02-05T03:57:10.094Z,4.00
2018-02-05T03:58:10.074Z,4.00
2018-02-05T03:59:10.044Z,4.00
2018-02-05T04:00:10.016Z,4.00
2018-02-05T04:01:09.988Z,4.00
2018-02-05T04:02:09.965Z,4.00
2018-02-05T04:03:09.937Z,4.00
2018-02-05T04:04:09.913Z,4.00
2018-02-05T04:05:09.887Z,4.00
2018-02-05T04:06:09.857Z,4.00
2018-02-05T04:07:09.833Z,4.00
2018-02-05T04:08:09.806Z,4.00
2018-02-05T04:09:09.782Z,4.00
2018-02-05T04:10:09.754Z,4.00
2018-02-05T04:11:09.732Z,4.00
2018-02-05T04:12:09.705Z,4.00
2018-02-05T04:13:09.679Z,4.00
2018-02-05T04:14:09.760Z,4.00
2018-02-05T04:15:09.625Z,4.00
2018-02-05T04:16:09.603Z,4.00
2018-02-05T04:17:09.588Z,4.00
2018-02-05T04:18:09.551Z,4.00
2018-02-05T04:19:09.523Z,4.00
2018-02-05T04:20:09.499Z,4.00
2018-02-05T04:21:09.472Z,4.00
2018-02-05T04:22:09.445Z,4.00
2018-02-05T04:23:09.419Z,4.00
2018-02-05T04:24:09.396Z,4.00
2018-02-05T04:25:09.420Z,4.00
2018-02-05T04:26:09.350Z,4.00
2018-02-05T04:27:09.320Z,4.00
2018-02-05T04:28:09.295Z,4.00
2018-02-05T04:29:09.268Z,4.00
2018-02-05T04:30:09.238Z,4.00
2018-02-05T04:31:09.221Z,4.00
2018-02-05T04:32:09.188Z,4.00
2018-02-05T04:33:09.164Z,4.00
2018-02-05T04:34:09.138Z,4.00
2018-02-05T04:35:09.123Z,4.00
2018-02-05T04:36:09.088Z,4.00
2018-02-05T04:37:09.071Z,4.00
2018-02-05T04:38:09.037Z,4.00
2018-02-05T04:39:09.010Z,4.00
2018-02-05T04:40:08.993Z,4.00
2018-02-05T04:41:08.960Z,4.00
2018-02-05T04:42:08.937Z,4.00
2018-02-05T04:43:08.921Z,4.00
2018-02-05T04:44:08.887Z,4.00
2018-02-05T04:45:08.865Z,4.00
2018-02-05T04:46:08.831Z,4.00
2018-02-05T04:47:08.818Z,4.00
2018-02-05T04:48:08.782Z,4.00
2018-02-05T04:49:08.756Z,4.00
2018-02-05T04:50:08.736Z,4.00
2018-02-05T04:51:08.707Z,4.00
2018-02-05T04:52:08.678Z,4.00
2018-02-05T04:53:08.758Z,4.00
2018-02-05T04:54:08.632Z,4.00
2018-02-05T04:55:08.604Z,4.00
2018-02-05T04:56:08.630Z,4.00
2018-02-05T04:57:08.556Z,4.00
2018-02-05T04:58:08.526Z,4.00
2018-02-05T04:59:08.503Z,4.00
2018-02-05T05:00:08.482Z,4.00
2018-02-05T05:01:08.449Z,4.00
2018-02-05T05:02:08.425Z,4.00
2018-02-05T05:03:08.399Z,4.00
2018-02-05T05:04:08.375Z,4.00
2018-02-05T05:05:08.350Z,4.00
2018-02-05T05:06:08.323Z,4.00
2018-02-05T05:07:08.296Z,4.00
2018-02-05T05:08:08.273Z,4.00
2018-02-05T05:09:08.246Z,4.00
2018-02-05T05:10:08.236Z,4.00
2018-02-05T05:11:08.197Z,4.00
2018-02-05T05:12:08.171Z,4.00
2018-02-05T05:13:08.145Z,4.00
2018-02-05T05:14:08.124Z,4.00
2018-02-05T05:15:08.097Z,4.00
2018-02-05T05:16:08.068Z,4.00
2018-02-05T05:17:08.046Z,4.00
2018-02-05T05:18:08.018Z,4.00
2018-02-05T05:19:07.996Z,4.00
2018-02-05T05:20:07.966Z,4.00
2018-02-05T05:21:07.945Z,4.00
2018-02-05T05:22:07.915Z,4.00
2018-02-05T05:23:07.891Z,4.00
2018-02-05T05:24:07.871Z,4.00
2018-02-05T05:25:07.842Z,4.00
2018-02-05T05:26:07.834Z,4.00
2018-02-05T05:27:07.800Z,4.00
2018-02-05T05:28:07.772Z,4.00
2018-02-05T05:29:07.749Z,4.00
2018-02-05T05:30:07.714Z,4.00
2018-02-05T05:31:07.699Z,4.00
2018-02-05T05:32:07.677Z,4.00
2018-02-05T05:33:07.641Z,4.00
2018-02-05T05:34:07.913Z,4.00
2018-02-05T05:35:07.591Z,4.00
2018-02-05T05:36:07.566Z,4.00
2018-02-05T05:37:07.540Z,4.00
2018-02-05T05:38:07.514Z,4.00
2018-02-05T05:39:07.489Z,4.00
2018-02-05T05:40:07.473Z,4.00
2018-02-05T05:41:07.440Z,4.00
2018-02-05T05:42:07.414Z,4.00
2018-02-05T05:43:07.390Z,4.00
2018-02-05T05:44:07.367Z,4.00
2018-02-05T05:45:07.341Z,4.00
2018-02-05T05:46:07.311Z,4.00
2018-02-05T05:47:07.288Z,4.00
2018-02-05T05:48:07.270Z,4.00
2018-02-05T05:49:07.248Z,4.00
2018-02-05T05:50:07.211Z,4.00
2018-02-05T05:51:07.198Z,4.00
2018-02-05T05:52:07.160Z,4.00
2018-02-05T05:53:07.139Z,4.00
2018-02-05T05:54:07.230Z,4.00
2018-02-05T05:55:07.088Z,4.00
2018-02-05T05:56:07.066Z,4.00
2018-02-05T05:57:07.068Z,4.00
2018-02-05T05:58:07.017Z,4.00
2018-02-05T05:59:06.983Z,4.00
2018-02-05T06:00:06.992Z,4.00
2018-02-05T06:01:07.245Z,4.00
2018-02-05T06:02:06.907Z,4.00
2018-02-05T06:03:06.880Z,4.00
2018-02-05T06:04:06.857Z,4.00
2018-02-05T06:05:06.835Z,4.00
2018-02-05T06:06:06.806Z,4.00
2018-02-05T06:07:06.786Z,4.00
2018-02-05T06:08:06.783Z,4.00
2018-02-05T06:09:06.739Z,4.00
2018-02-05T06:10:06.707Z,4.00
2018-02-05T06:11:06.686Z,4.00
2018-02-05T06:12:06.658Z,4.00
2018-02-05T06:13:06.662Z,4.00
2018-02-05T06:14:06.604Z,4.00
2018-02-05T06:15:06.579Z,4.00
2018-02-05T06:16:06.557Z,4.00
2018-02-05T06:17:06.532Z,4.00
2018-02-05T06:18:06.507Z,4.00
2018-02-05T06:19:06.484Z,4.00
2018-02-05T06:20:06.453Z,4.00
2018-02-05T06:21:06.432Z,4.00
2018-02-05T06:22:06.424Z,4.00
2018-02-05T06:23:06.379Z,4.00
2018-02-05T06:24:06.365Z,4.00
2018-02-05T06:25:06.335Z,4.00
2018-02-05T06:26:06.304Z,4.00
2018-02-05T06:27:06.279Z,4.00
2018-02-05T06:28:06.261Z,4.00
2018-02-05T06:29:06.228Z,4.00
2018-02-05T06:30:06.275Z,0.00
2018-02-05T06:31:06.176Z,4.00
2018-02-05T06:32:06.153Z,4.00
2018-02-05T06:33:06.140Z,4.00
2018-02-05T06:34:06.102Z,4.00
2018-02-05T06:35:06.079Z,4.00
2018-02-05T06:36:06.079Z,4.00
2018-02-05T06:37:06.032Z,4.00
2018-02-05T06:38:06.004Z,8.00
2018-02-05T06:39:05.978Z,4.00
2018-02-05T06:40:05.959Z,8.00
2018-02-05T06:41:05.927Z,8.00
2018-02-05T06:42:05.901Z,8.00
2018-02-05T06:43:05.884Z,12.00
2018-02-05T06:44:05.851Z,12.00
2018-02-05T06:45:05.831Z,12.00
2018-02-05T06:46:05.803Z,20.00
2018-02-05T06:47:05.777Z,20.00
2018-02-05T06:48:05.750Z,16.00
2018-02-05T06:49:05.725Z,20.00
2018-02-05T06:50:05.701Z,24.00
2018-02-05T06:51:05.675Z,20.00
2018-02-05T06:52:05.653Z,16.00
2018-02-05T06:53:05.629Z,16.00
2018-02-05T06:54:05.600Z,16.00
2018-02-05T06:55:05.575Z,20.00
2018-02-05T06:56:05.550Z,24.00
2018-02-05T06:57:05.530Z,24.00
2018-02-05T06:58:05.499Z,28.00
2018-02-05T06:59:05.479Z,40.00
2018-02-05T07:00:05.460Z,52.00
2018-02-05T07:01:05.429Z,52.00
2018-02-05T07:02:05.405Z,56.00
2018-02-05T07:03:05.379Z,48.00
2018-02-05T07:04:05.350Z,44.00
2018-02-05T07:05:05.334Z,36.00
2018-02-05T07:06:05.323Z,36.00
2018-02-05T07:07:05.279Z,40.00
2018-02-05T07:08:05.254Z,60.00
2018-02-05T07:09:05.320Z,68.00
2018-02-05T07:10:05.207Z,60.00
2018-02-05T07:11:05.177Z,60.00
2018-02-05T07:12:05.152Z,72.00
2018-02-05T07:13:05.135Z,84.00
2018-02-05T07:14:05.100Z,112.00
2018-02-05T07:15:05.086Z,108.00
2018-02-05T07:16:05.051Z,96.00
2018-02-05T07:17:05.028Z,96.00
2018-02-05T07:18:05.000Z,100.00
2018-02-05T07:19:04.975Z,92.00
2018-02-05T07:20:04.950Z,92.00
2018-02-05T07:21:04.924Z,96.00
2018-02-05T07:22:04.903Z,92.00
2018-02-05T07:23:04.896Z,76.00
2018-02-05T07:24:04.852Z,68.00
2018-02-05T07:25:04.825Z,68.00
2018-02-05T07:26:04.800Z,72.00
2018-02-05T07:27:04.775Z,76.00
2018-02-05T07:28:04.832Z,76.00
2018-02-05T07:29:04.725Z,76.00
2018-02-05T07:30:04.698Z,84.00
2018-02-05T07:31:04.715Z,100.00
2018-02-05T07:32:04.647Z,132.00
2018-02-05T07:33:04.625Z,208.00
2018-02-05T07:34:04.599Z,288.00
2018-02-05T07:35:04.574Z,312.00
2018-02-05T07:36:04.547Z,264.00
2018-02-05T07:37:04.525Z,268.00
2018-02-05T07:38:04.534Z,240.00
2018-02-05T07:39:04.495Z,316.00
2018-02-05T07:40:04.452Z,388.00
2018-02-05T07:41:04.429Z,420.00
2018-02-05T07:42:04.395Z,512.00
2018-02-05T07:43:04.373Z,520.00
2018-02-05T07:44:04.344Z,512.00
2018-02-05T07:45:04.325Z,596.00
2018-02-05T07:46:04.295Z,620.00
2018-02-05T07:47:04.273Z,624.00
2018-02-05T07:48:04.248Z,536.00
2018-02-05T07:49:04.223Z,580.00
2018-02-05T07:50:04.195Z,592.00
2018-02-05T07:51:04.174Z,596.00
2018-02-05T07:52:04.148Z,576.00
2018-02-05T07:53:04.123Z,524.00
2018-02-05T07:54:04.097Z,412.00
2018-02-05T07:55:04.077Z,376.00
2018-02-05T07:56:04.082Z,412.00
2018-02-05T07:57:04.022Z,396.00
2018-02-05T07:58:04.002Z,324.00
2018-02-05T07:59:03.971Z,312.00
2018-02-05T08:00:03.948Z,364.00
2018-02-05T08:01:03.938Z,368.00
2018-02-05T08:02:03.896Z,308.00
2018-02-05T08:03:03.870Z,408.00
2018-02-05T08:04:03.858Z,500.00
2018-02-05T08:05:03.842Z,468.00
2018-02-05T08:06:03.802Z,424.00
2018-02-05T08:07:03.851Z,356.00
2018-02-05T08:08:03.746Z,320.00
2018-02-05T08:09:03.727Z,332.00
2018-02-05T08:10:03.700Z,364.00
2018-02-05T08:11:03.669Z,312.00
2018-02-05T08:12:03.649Z,296.00
2018-02-05T08:13:03.626Z,308.00
2018-02-05T08:14:03.591Z,388.00
2018-02-05T08:15:03.572Z,412.00
2018-02-05T08:16:03.542Z,392.00
2018-02-05T08:17:03.516Z,408.00
2018-02-05T08:18:03.489Z,360.00
2018-02-05T08:19:03.464Z,416.00
2018-02-05T08:20:03.439Z,592.00
2018-02-05T08:21:03.413Z,912.00
2018-02-05T08:22:03.388Z,1408.00
2018-02-05T08:23:03.362Z,1744.00
2018-02-05T08:24:03.340Z,2012.00
2018-02-05T08:25:03.314Z,2212.00
2018-02-05T08:26:03.290Z,2828.00
2018-02-05T08:27:03.264Z,2752.00
2018-02-05T08:28:03.237Z,3160.00
2018-02-05T08:29:03.212Z,2960.00
2018-02-05T08:30:03.187Z,2296.00
2018-02-05T08:31:03.161Z,2160.00
2018-02-05T08:32:03.145Z,2596.00
2018-02-05T08:33:03.109Z,3232.00
2018-02-05T08:34:03.086Z,3624.00
2018-02-05T08:35:03.059Z,3792.00
2018-02-05T08:36:03.041Z,3824.00
2018-02-05T08:37:03.016Z,3404.00
2018-02-05T08:38:02.989Z,3496.00
2018-02-05T08:39:02.966Z,4328.00
2018-02-05T08:40:02.991Z,3676.00
2018-02-05T08:41:02.912Z,3860.00
2018-02-05T08:42:02.885Z,4304.00
2018-02-05T08:43:02.870Z,4540.00
2018-02-05T08:44:02.860Z,4132.00
2018-02-05T08:45:02.821Z,4412.00
2018-02-05T08:46:02.845Z,4184.00
2018-02-05T08:47:02.757Z,4160.00
2018-02-05T08:48:02.735Z,4052.00
2018-02-05T08:49:02.717Z,4032.00
2018-02-05T08:50:02.696Z,4340.00
2018-02-05T08:51:02.657Z,4496.00
2018-02-05T08:52:02.654Z,4280.00
2018-02-05T08:53:02.650Z,4044.00
2018-02-05T08:54:02.585Z,4252.00
2018-02-05T08:55:02.567Z,4800.00
2018-02-05T08:56:02.535Z,4744.00
2018-02-05T08:57:02.517Z,5328.00
2018-02-05T08:58:02.484Z,5148.00
2018-02-05T08:59:02.460Z,5244.00
2018-02-05T09:00:02.445Z,4504.00
2018-02-05T09:01:02.421Z,4176.00
2018-02-05T09:02:02.389Z,3532.00
2018-02-05T09:03:02.366Z,3124.00
2018-02-05T09:04:02.342Z,3808.00
2018-02-05T09:05:02.396Z,3324.00
2018-02-05T09:06:02.289Z,2732.00
2018-02-05T09:07:02.267Z,2968.00
2018-02-05T09:08:02.250Z,2992.00
2018-02-05T09:09:02.215Z,3420.00
2018-02-05T09:10:02.192Z,4288.00
2018-02-05T09:11:02.165Z,3640.00
2018-02-05T09:12:02.149Z,3244.00
2018-02-05T09:13:02.120Z,3548.00
2018-02-05T09:14:02.105Z,3820.00
2018-02-05T09:15:02.086Z,3884.00
2018-02-05T09:16:02.048Z,5284.00
2018-02-05T09:17:02.023Z,4596.00
2018-02-05T09:18:01.990Z,4344.00
2018-02-05T09:19:01.971Z,4232.00
2018-02-05T09:20:01.943Z,4248.00
2018-02-05T09:21:01.921Z,3416.00
2018-02-05T09:22:01.902Z,3472.00
2018-02-05T09:23:01.870Z,4452.00
2018-02-05T09:24:01.846Z,4232.00
2018-02-05T09:25:01.823Z,3156.00
2018-02-05T09:26:01.797Z,3732.00
2018-02-05T09:27:01.812Z,4312.00
2018-02-05T09:28:01.771Z,3756.00
2018-02-05T09:29:01.733Z,3924.00
2018-02-05T09:30:01.702Z,4220.00
2018-02-05T09:31:01.675Z,4972.00
2018-02-05T09:32:01.659Z,5612.00
2018-02-05T09:33:01.628Z,5128.00
2018-02-05T09:34:01.601Z,5060.00
2018-02-05T09:35:01.594Z,6364.00
2018-02-05T09:36:01.555Z,5848.00
2018-02-05T09:37:01.532Z,5200.00
2018-02-05T09:38:01.534Z,5008.00
2018-02-05T09:39:01.485Z,4068.00
2018-02-05T09:40:01.465Z,3824.00
2018-02-05T09:41:01.442Z,4256.00
2018-02-05T09:42:01.408Z,4352.00
2018-02-05T09:43:01.387Z,4716.00
2018-02-05T09:44:01.360Z,5080.00
2018-02-05T09:45:01.335Z,4548.00
2018-02-05T09:46:01.310Z,4256.00
2018-02-05T09:47:01.297Z,4376.00
2018-02-05T09:48:01.264Z,6388.00
2018-02-05T09:49:01.240Z,5696.00
2018-02-05T09:50:01.217Z,5696.00
2018-02-05T09:51:01.200Z,7300.00
2018-02-05T09:52:01.168Z,6568.00
2018-02-05T09:53:01.148Z,7452.00
2018-02-05T09:54:01.119Z,7932.00
2018-02-05T09:55:01.102Z,12084.00
2018-02-05T09:56:01.075Z,13396.00
2018-02-05T09:57:01.046Z,11968.00
2018-02-05T09:58:01.021Z,8236.00
2018-02-05T09:59:00.999Z,10524.00
2018-02-05T10:00:01.132Z,9960.00
2018-02-05T10:01:00.996Z,7784.00
2018-02-05T10:02:00.925Z,5972.00
2018-02-05T10:03:00.905Z,4852.00
2018-02-05T10:04:00.881Z,4904.00
2018-02-05T10:05:00.862Z,5952.00
2018-02-05T10:06:00.837Z,5148.00
2018-02-05T10:07:00.809Z,3832.00
2018-02-05T10:08:00.785Z,3992.00
2018-02-05T10:09:00.768Z,4356.00
2018-02-05T10:10:00.737Z,4876.00
2018-02-05T10:11:00.723Z,4852.00
2018-02-05T10:12:00.687Z,3812.00
2018-02-05T10:13:00.664Z,3956.00
2018-02-05T10:14:00.646Z,3964.00
2018-02-05T10:15:00.613Z,3888.00
2018-02-05T10:16:00.611Z,3384.00
2018-02-05T10:17:00.575Z,2876.00
2018-02-05T10:18:00.559Z,2964.00
2018-02-05T10:19:00.519Z,3324.00
2018-02-05T10:20:00.496Z,4352.00
2018-02-05T10:21:00.473Z,3028.00
2018-02-05T10:22:00.516Z,3228.00
2018-02-05T10:23:00.423Z,3368.00
2018-02-05T10:24:00.398Z,3800.00
2018-02-05T10:25:00.377Z,4024.00
2018-02-05T10:26:00.348Z,4104.00
2018-02-05T10:27:00.331Z,3580.00
2018-02-05T10:28:00.302Z,3932.00
2018-02-05T10:29:00.277Z,5452.00
2018-02-05T10:30:00.251Z,4564.00
2018-02-05T10:31:00.240Z,3920.00
2018-02-05T10:32:00.203Z,3136.00
2018-02-05T10:33:00.196Z,3512.00
2018-02-05T10:34:00.153Z,3140.00
2018-02-05T10:35:00.131Z,3212.00
2018-02-05T10:36:00.209Z,4916.00
2018-02-05T10:37:00.086Z,5160.00
2018-02-05T10:38:00.056Z,3564.00
2018-02-05T10:39:00.043Z,2580.00
2018-02-05T10:40:00.014Z,2624.00
2018-02-05T10:41:00.012Z,2696.00
2018-02-05T10:41:59.961Z,2316.00
2018-02-05T10:42:59.943Z,2256.00
2018-02-05T10:43:59.920Z,4236.00
2018-02-05T10:44:59.885Z,5776.00
2018-02-05T10:45:59.862Z,5920.00
2018-02-05T10:46:59.834Z,6916.00
2018-02-05T10:47:59.813Z,8092.00
2018-02-05T10:48:59.796Z,8268.00
2018-02-05T10:49:59.763Z,8188.00
2018-02-05T10:50:59.739Z,9412.00
2018-02-05T10:51:59.714Z,11860.00
2018-02-05T10:52:59.692Z,12388.00
2018-02-05T10:53:59.669Z,10856.00
2018-02-05T10:54:59.755Z,11204.00
2018-02-05T10:55:59.619Z,11932.00
2018-02-05T10:56:59.609Z,12628.00
2018-02-05T10:57:59.672Z,13292.00
2018-02-05T10:58:59.550Z,13228.00
2018-02-05T10:59:59.529Z,11888.00
2018-02-05T11:00:59.515Z,9500.00
2018-02-05T11:01:59.478Z,9380.00
2018-02-05T11:02:59.453Z,9708.00
2018-02-05T11:03:59.430Z,10108.00
2018-02-05T11:04:59.408Z,9232.00
2018-02-05T11:05:59.382Z,8232.00
2018-02-05T11:06:59.361Z,7120.00
2018-02-05T11:07:59.337Z,6176.00
2018-02-05T11:08:59.330Z,5160.00
2018-02-05T11:09:59.289Z,4484.00
2018-02-05T11:10:59.274Z,3756.00
2018-02-05T11:11:59.246Z,3180.00
2018-02-05T11:12:59.224Z,3196.00
2018-02-05T11:13:59.197Z,3780.00
2018-02-05T11:14:59.176Z,4400.00
2018-02-05T11:15:59.151Z,5600.00
2018-02-05T11:16:59.144Z,5016.00
2018-02-05T11:17:59.114Z,4960.00
2018-02-05T11:18:59.092Z,4992.00
2018-02-05T11:19:59.060Z,5036.00
2018-02-05T11:20:59.047Z,5908.00
2018-02-05T11:21:59.011Z,7196.00
2018-02-05T11:22:58.997Z,6676.00
2018-02-05T11:23:58.969Z,5764.00
2018-02-05T11:24:58.957Z,5292.00
2018-02-05T11:25:58.926Z,5088.00
2018-02-05T11:26:58.895Z,5336.00
2018-02-05T11:27:58.885Z,6040.00
2018-02-05T11:28:58.846Z,7224.00
2018-02-05T11:29:58.835Z,6960.00
2018-02-05T11:30:58.905Z,5916.00
2018-02-05T11:31:58.775Z,5136.00
2018-02-05T11:32:58.754Z,4456.00
2018-02-05T11:33:58.732Z,4756.00
2018-02-05T11:34:58.710Z,5236.00
2018-02-05T11:35:58.697Z,5420.00
2018-02-05T11:36:58.681Z,5392.00
2018-02-05T11:37:58.633Z,4976.00
2018-02-05T11:38:58.613Z,4676.00
2018-02-05T11:39:58.588Z,5364.00
2018-02-05T11:40:58.569Z,5344.00
2018-02-05T11:41:58.551Z,5388.00
2018-02-05T11:42:58.538Z,5856.00
2018-02-05T11:43:58.511Z,5580.00
2018-02-05T11:44:58.471Z,5720.00
2018-02-05T11:45:58.444Z,6328.00
2018-02-05T11:46:58.423Z,7980.00
2018-02-05T11:47:58.406Z,10092.00
2018-02-05T11:48:58.410Z,10908.00
2018-02-05T11:49:58.386Z,10920.00
2018-02-05T11:50:58.334Z,10712.00
2018-02-05T11:51:58.306Z,9716.00
2018-02-05T11:52:58.383Z,9512.00
2018-02-05T11:53:58.256Z,9940.00
2018-02-05T11:54:58.232Z,10108.00
2018-02-05T11:55:58.216Z,8736.00
2018-02-05T11:56:58.193Z,8236.00
2018-02-05T11:57:58.166Z,7316.00
2018-02-05T11:58:58.140Z,6748.00
2018-02-05T11:59:58.121Z,6476.00
2018-02-05T12:00:58.094Z,6692.00
2018-02-05T12:01:58.070Z,6780.00
2018-02-05T12:02:58.057Z,6192.00
2018-02-05T12:03:58.031Z,6360.00
2018-02-05T12:04:58.003Z,6572.00
2018-02-05T12:05:57.979Z,6836.00
2018-02-05T12:06:58.010Z,6900.00
2018-02-05T12:07:57.933Z,7420.00
2018-02-05T12:08:57.915Z,7684.00
2018-02-05T12:09:57.889Z,9520.00
2018-02-05T12:10:57.868Z,10288.00
2018-02-05T12:11:57.857Z,7092.00
2018-02-05T12:12:57.827Z,4940.00
2018-02-05T12:13:57.795Z,4440.00
2018-02-05T12:14:57.785Z,4192.00
2018-02-05T12:15:57.764Z,4376.00
2018-02-05T12:16:57.723Z,4340.00
2018-02-05T12:17:57.698Z,3880.00
2018-02-05T12:18:57.697Z,4544.00
2018-02-05T12:19:57.652Z,4392.00
2018-02-05T12:20:57.630Z,4408.00
2018-02-05T12:21:57.612Z,4792.00
2018-02-05T12:22:57.769Z,4128.00
2018-02-05T12:23:57.562Z,4224.00
2018-02-05T12:24:57.547Z,4064.00
2018-02-05T12:25:57.598Z,3864.00
2018-02-05T12:26:57.497Z,3940.00
2018-02-05T12:27:57.467Z,4384.00
2018-02-05T12:28:57.481Z,4636.00
2018-02-05T12:29:57.419Z,4736.00
2018-02-05T12:30:57.396Z,4580.00
2018-02-05T12:31:57.378Z,4832.00
2018-02-05T12:32:57.354Z,5192.00
2018-02-05T12:33:57.327Z,5200.00
2018-02-05T12:34:57.308Z,5788.00
2018-02-05T12:35:57.276Z,6976.00
2018-02-05T12:36:57.261Z,8416.00
2018-02-05T12:37:57.235Z,9836.00
2018-02-05T12:38:57.207Z,9196.00
2018-02-05T12:39:57.186Z,9604.00
2018-02-05T12:40:57.165Z,10000.00
2018-02-05T12:41:57.135Z,9116.00
2018-02-05T12:42:57.115Z,9392.00
2018-02-05T12:43:57.088Z,8976.00
2018-02-05T12:44:57.066Z,7532.00
2018-02-05T12:45:57.047Z,6304.00